Hydro-Met Data Report Part 3
Issued by NWS Memphis, TN

Home | Current Version | Previous Version | Text Only | Print | Product List | Glossary On
Versions: 1 2 3 4 5 6 7 8 9 10 11 12 13 14 15 16 17 18 19 20 21 22 23 24 25 26 27 28 29 30 31 32 33 34 35 36 37 38 39 40 41 42 43 44 45 46 47 48 49 50
237
SRUS54 KMEG 210230
RR3MEG
WxCoder
.AR STMT1 180418 C DH0800/TX 82/TN 44/TA 64/PP 0.00
.AR1 SF 0.0/SD 0/XR 81/RT 10/UD 200/US 15
.AR2 UP 29/UR 200/TVIRZX 2.062/TVIRZN 2.052/TV 4.058/DC1804202125
: METAR 181300Z 20009G20KT 10SM OVC024 17/14 A2986 RMK AO1 PK WND 23025/46 SLP111
: T01680135 52019=
: AM LOW 60 SOLAR RADIATION 107 W/M^=



USA.gov is the U.S. government's official web portal to all federal, state and local government web resources and services.